sensor_id;sensor_type;location;lat;lon;timestamp;P1;durP1;ratioP1;P2;durP2;ratioP2
23498;SDS011;11926;48.120;11.562;2023-07-13T00:01:06;6.10;;;3.83;;
23498;SDS011;11926;48.120;11.562;2023-07-13T00:03:54;6.38;;;3.65;;
23498;SDS011;11926;48.120;11.562;2023-07-13T00:06:41;7.47;;;4.15;;
23498;SDS011;11926;48.120;11.562;2023-07-13T00:09:31;8.57;;;3.95;;
23498;SDS011;11926;48.120;11.562;2023-07-13T00:12:22;10.55;;;3.80;;
23498;SDS011;11926;48.120;11.562;2023-07-13T00:17:58;9.23;;;4.20;;
23498;SDS011;11926;48.120;11.562;2023-07-13T00:20:46;6.93;;;3.75;;
23498;SDS011;11926;48.120;11.562;2023-07-13T00:23:34;6.90;;;3.42;;
23498;SDS011;11926;48.120;11.562;2023-07-13T00:26:24;7.85;;;3.85;;
23498;SDS011;11926;48.120;11.562;2023-07-13T00:29:11;7.90;;;3.97;;
23498;SDS011;11926;48.120;11.562;2023-07-13T00:31:59;6.03;;;3.10;;
23498;SDS011;11926;48.120;11.562;2023-07-13T00:34:46;6.30;;;3.35;;
23498;SDS011;11926;48.120;11.562;2023-07-13T00:37:36;6.45;;;3.53;;
23498;SDS011;11926;48.120;11.562;2023-07-13T00:40:23;9.50;;;3.60;;
23498;SDS011;11926;48.120;11.562;2023-07-13T00:43:13;6.82;;;3.60;;
23498;SDS011;11926;48.120;11.562;2023-07-13T00:46:12;6.22;;;3.10;;
23498;SDS011;11926;48.120;11.562;2023-07-13T00:49:04;5.38;;;3.20;;
23498;SDS011;11926;48.120;11.562;2023-07-13T00:51:55;6.88;;;3.30;;
23498;SDS011;11926;48.120;11.562;2023-07-13T00:54:45;4.85;;;3.00;;
23498;SDS011;11926;48.120;11.562;2023-07-13T00:57:33;6.38;;;2.90;;
23498;SDS011;11926;48.120;11.562;2023-07-13T01:00:22;5.10;;;2.92;;
23498;SDS011;11926;48.120;11.562;2023-07-13T01:03:12;5.72;;;2.70;;
23498;SDS011;11926;48.120;11.562;2023-07-13T01:06:00;8.18;;;3.25;;
23498;SDS011;11926;48.120;11.562;2023-07-13T01:08:50;5.25;;;3.10;;
23498;SDS011;11926;48.120;11.562;2023-07-13T01:11:37;5.95;;;2.70;;
23498;SDS011;11926;48.120;11.562;2023-07-13T01:14:25;5.05;;;2.65;;
23498;SDS011;11926;48.120;11.562;2023-07-13T01:17:14;6.13;;;3.15;;
23498;SDS011;11926;48.120;11.562;2023-07-13T01:20:02;8.02;;;3.00;;
23498;SDS011;11926;48.120;11.562;2023-07-13T01:22:51;7.35;;;3.30;;
23498;SDS011;11926;48.120;11.562;2023-07-13T01:25:39;8.75;;;3.00;;
23498;SDS011;11926;48.120;11.562;2023-07-13T01:28:27;5.22;;;2.50;;
23498;SDS011;11926;48.120;11.562;2023-07-13T01:31:17;5.43;;;2.50;;
23498;SDS011;11926;48.120;11.562;2023-07-13T01:34:04;4.15;;;2.65;;
23498;SDS011;11926;48.120;11.562;2023-07-13T01:36:51;9.57;;;3.10;;
23498;SDS011;11926;48.120;11.562;2023-07-13T01:39:40;4.25;;;2.90;;
23498;SDS011;11926;48.120;11.562;2023-07-13T01:42:28;4.53;;;2.67;;
23498;SDS011;11926;48.120;11.562;2023-07-13T01:45:15;6.72;;;3.30;;
23498;SDS011;11926;48.120;11.562;2023-07-13T01:48:02;7.28;;;3.30;;
23498;SDS011;11926;48.120;11.562;2023-07-13T01:50:52;5.55;;;3.15;;
23498;SDS011;11926;48.120;11.562;2023-07-13T01:53:39;5.80;;;3.28;;
23498;SDS011;11926;48.120;11.562;2023-07-13T01:56:28;7.20;;;3.95;;
23498;SDS011;11926;48.120;11.562;2023-07-13T01:59:15;9.05;;;3.22;;
23498;SDS011;11926;48.120;11.562;2023-07-13T02:02:02;10.68;;;3.90;;
23498;SDS011;11926;48.120;11.562;2023-07-13T02:04:50;11.30;;;3.80;;
23498;SDS011;11926;48.120;11.562;2023-07-13T02:07:39;6.00;;;3.67;;
23498;SDS011;11926;48.120;11.562;2023-07-13T02:10:27;7.35;;;4.03;;
23498;SDS011;11926;48.120;11.562;2023-07-13T02:13:15;10.13;;;4.93;;
23498;SDS011;11926;48.120;11.562;2023-07-13T02:16:02;10.77;;;4.45;;
23498;SDS011;11926;48.120;11.562;2023-07-13T02:18:50;7.78;;;4.15;;
23498;SDS011;11926;48.120;11.562;2023-07-13T02:21:37;10.43;;;4.65;;
23498;SDS011;11926;48.120;11.562;2023-07-13T02:24:24;11.77;;;5.30;;
23498;SDS011;11926;48.120;11.562;2023-07-13T02:27:12;6.28;;;4.50;;
23498;SDS011;11926;48.120;11.562;2023-07-13T02:30:01;6.45;;;3.80;;
23498;SDS011;11926;48.120;11.562;2023-07-13T02:32:49;7.00;;;4.10;;
23498;SDS011;11926;48.120;11.562;2023-07-13T02:35:36;7.88;;;4.28;;
23498;SDS011;11926;48.120;11.562;2023-07-13T02:38:24;6.97;;;3.88;;
23498;SDS011;11926;48.120;11.562;2023-07-13T02:41:11;5.13;;;4.03;;
23498;SDS011;11926;48.120;11.562;2023-07-13T02:43:58;12.90;;;4.32;;
23498;SDS011;11926;48.120;11.562;2023-07-13T02:46:50;12.40;;;5.45;;
23498;SDS011;11926;48.120;11.562;2023-07-13T02:49:37;16.05;;;5.57;;
23498;SDS011;11926;48.120;11.562;2023-07-13T02:52:25;26.42;;;6.50;;
23498;SDS011;11926;48.120;11.562;2023-07-13T02:55:13;26.52;;;6.70;;
23498;SDS011;11926;48.120;11.562;2023-07-13T02:58:00;10.10;;;5.25;;
23498;SDS011;11926;48.120;11.562;2023-07-13T03:00:47;7.68;;;5.18;;
23498;SDS011;11926;48.120;11.562;2023-07-13T03:03:37;7.65;;;4.43;;
23498;SDS011;11926;48.120;11.562;2023-07-13T03:06:25;13.45;;;4.78;;
23498;SDS011;11926;48.120;11.562;2023-07-13T03:09:16;14.38;;;5.30;;
23498;SDS011;11926;48.120;11.562;2023-07-13T03:12:10;12.63;;;5.78;;
23498;SDS011;11926;48.120;11.562;2023-07-13T03:14:57;10.18;;;5.43;;
23498;SDS011;11926;48.120;11.562;2023-07-13T03:17:45;9.23;;;5.82;;
23498;SDS011;11926;48.120;11.562;2023-07-13T03:20:35;12.05;;;4.57;;
23498;SDS011;11926;48.120;11.562;2023-07-13T03:23:22;10.60;;;3.45;;
23498;SDS011;11926;48.120;11.562;2023-07-13T03:26:11;11.38;;;4.32;;
23498;SDS011;11926;48.120;11.562;2023-07-13T03:29:01;13.18;;;4.10;;
23498;SDS011;11926;48.120;11.562;2023-07-13T03:31:48;11.10;;;3.85;;
23498;SDS011;11926;48.120;11.562;2023-07-13T03:34:36;8.73;;;4.32;;
23498;SDS011;11926;48.120;11.562;2023-07-13T03:37:26;9.57;;;4.60;;
23498;SDS011;11926;48.120;11.562;2023-07-13T03:40:13;12.52;;;4.40;;
23498;SDS011;11926;48.120;11.562;2023-07-13T03:43:02;11.50;;;4.60;;
23498;SDS011;11926;48.120;11.562;2023-07-13T03:45:50;8.90;;;4.65;;
23498;SDS011;11926;48.120;11.562;2023-07-13T03:48:37;7.90;;;4.55;;
23498;SDS011;11926;48.120;11.562;2023-07-13T03:51:26;9.30;;;4.60;;
23498;SDS011;11926;48.120;11.562;2023-07-13T03:54:15;7.38;;;4.10;;
23498;SDS011;11926;48.120;11.562;2023-07-13T03:57:02;7.35;;;4.55;;
23498;SDS011;11926;48.120;11.562;2023-07-13T03:59:53;6.45;;;4.05;;
23498;SDS011;11926;48.120;11.562;2023-07-13T04:02:40;10.18;;;4.13;;
23498;SDS011;11926;48.120;11.562;2023-07-13T04:05:28;9.18;;;3.60;;
23498;SDS011;11926;48.120;11.562;2023-07-13T04:08:17;6.65;;;3.95;;
23498;SDS011;11926;48.120;11.562;2023-07-13T04:11:06;9.70;;;4.10;;
23498;SDS011;11926;48.120;11.562;2023-07-13T04:13:53;7.38;;;4.00;;
23498;SDS011;11926;48.120;11.562;2023-07-13T04:16:41;5.90;;;3.80;;
23498;SDS011;11926;48.120;11.562;2023-07-13T04:19:28;5.95;;;3.75;;
23498;SDS011;11926;48.120;11.562;2023-07-13T04:22:15;7.40;;;4.20;;
23498;SDS011;11926;48.120;11.562;2023-07-13T04:25:02;11.40;;;4.05;;
23498;SDS011;11926;48.120;11.562;2023-07-13T04:27:52;6.40;;;3.50;;
23498;SDS011;11926;48.120;11.562;2023-07-13T04:30:39;10.88;;;3.70;;
23498;SDS011;11926;48.120;11.562;2023-07-13T04:33:27;5.47;;;3.35;;
23498;SDS011;11926;48.120;11.562;2023-07-13T04:36:15;8.85;;;3.70;;
23498;SDS011;11926;48.120;11.562;2023-07-13T04:39:03;8.18;;;3.85;;
23498;SDS011;11926;48.120;11.562;2023-07-13T04:41:50;6.70;;;3.60;;
23498;SDS011;11926;48.120;11.562;2023-07-13T04:44:38;8.68;;;3.80;;
23498;SDS011;11926;48.120;11.562;2023-07-13T04:47:26;8.20;;;4.10;;
23498;SDS011;11926;48.120;11.562;2023-07-13T04:50:16;7.63;;;4.00;;
23498;SDS011;11926;48.120;11.562;2023-07-13T04:53:06;6.70;;;3.30;;
23498;SDS011;11926;48.120;11.562;2023-07-13T04:55:53;9.85;;;3.95;;
23498;SDS011;11926;48.120;11.562;2023-07-13T04:58:41;8.60;;;3.80;;
23498;SDS011;11926;48.120;11.562;2023-07-13T05:01:30;10.38;;;4.28;;
23498;SDS011;11926;48.120;11.562;2023-07-13T05:04:17;7.80;;;3.53;;
23498;SDS011;11926;48.120;11.562;2023-07-13T05:07:05;9.27;;;3.60;;
23498;SDS011;11926;48.120;11.562;2023-07-13T05:09:52;4.95;;;3.53;;
23498;SDS011;11926;48.120;11.562;2023-07-13T05:12:40;10.05;;;3.85;;
23498;SDS011;11926;48.120;11.562;2023-07-13T05:15:27;7.60;;;3.63;;
23498;SDS011;11926;48.120;11.562;2023-07-13T05:18:16;9.55;;;4.28;;
23498;SDS011;11926;48.120;11.562;2023-07-13T05:21:04;7.28;;;3.55;;
23498;SDS011;11926;48.120;11.562;2023-07-13T05:23:53;7.88;;;3.80;;
23498;SDS011;11926;48.120;11.562;2023-07-13T05:26:42;11.13;;;3.60;;
23498;SDS011;11926;48.120;11.562;2023-07-13T05:29:30;9.85;;;4.10;;
23498;SDS011;11926;48.120;11.562;2023-07-13T05:32:17;6.78;;;3.38;;
23498;SDS011;11926;48.120;11.562;2023-07-13T05:35:07;8.18;;;3.90;;
23498;SDS011;11926;48.120;11.562;2023-07-13T05:37:55;8.82;;;3.92;;
23498;SDS011;11926;48.120;11.562;2023-07-13T05:40:42;5.68;;;3.70;;
23498;SDS011;11926;48.120;11.562;2023-07-13T05:43:29;5.05;;;3.50;;
23498;SDS011;11926;48.120;11.562;2023-07-13T05:46:16;8.40;;;4.28;;
23498;SDS011;11926;48.120;11.562;2023-07-13T05:49:03;7.57;;;4.25;;
23498;SDS011;11926;48.120;11.562;2023-07-13T05:51:52;5.65;;;3.55;;
23498;SDS011;11926;48.120;11.562;2023-07-13T05:54:40;5.60;;;3.15;;
23498;SDS011;11926;48.120;11.562;2023-07-13T05:57:27;6.47;;;3.63;;
23498;SDS011;11926;48.120;11.562;2023-07-13T06:00:15;5.88;;;3.55;;
23498;SDS011;11926;48.120;11.562;2023-07-13T06:03:03;9.57;;;4.10;;
23498;SDS011;11926;48.120;11.562;2023-07-13T06:05:52;7.07;;;3.28;;
23498;SDS011;11926;48.120;11.562;2023-07-13T06:08:41;8.10;;;3.78;;
23498;SDS011;11926;48.120;11.562;2023-07-13T06:11:28;9.50;;;4.10;;
23498;SDS011;11926;48.120;11.562;2023-07-13T06:14:16;11.85;;;4.00;;
23498;SDS011;11926;48.120;11.562;2023-07-13T06:17:03;10.68;;;4.03;;
23498;SDS011;11926;48.120;11.562;2023-07-13T06:19:51;9.23;;;3.72;;
23498;SDS011;11926;48.120;11.562;2023-07-13T06:22:38;6.80;;;3.70;;
23498;SDS011;11926;48.120;11.562;2023-07-13T06:25:27;7.00;;;3.53;;
23498;SDS011;11926;48.120;11.562;2023-07-13T06:28:18;6.70;;;3.83;;
23498;SDS011;11926;48.120;11.562;2023-07-13T06:31:06;8.10;;;4.05;;
23498;SDS011;11926;48.120;11.562;2023-07-13T06:33:55;10.20;;;3.50;;
23498;SDS011;11926;48.120;11.562;2023-07-13T06:36:43;9.85;;;2.92;;
23498;SDS011;11926;48.120;11.562;2023-07-13T06:39:31;5.93;;;3.00;;
23498;SDS011;11926;48.120;11.562;2023-07-13T06:42:20;5.78;;;2.80;;
23498;SDS011;11926;48.120;11.562;2023-07-13T06:45:08;9.75;;;2.88;;
23498;SDS011;11926;48.120;11.562;2023-07-13T06:47:55;8.07;;;3.40;;
23498;SDS011;11926;48.120;11.562;2023-07-13T06:50:42;9.38;;;3.78;;
23498;SDS011;11926;48.120;11.562;2023-07-13T06:53:30;8.18;;;3.15;;
23498;SDS011;11926;48.120;11.562;2023-07-13T06:56:18;9.73;;;3.10;;
23498;SDS011;11926;48.120;11.562;2023-07-13T06:59:06;5.47;;;2.80;;
23498;SDS011;11926;48.120;11.562;2023-07-13T07:01:53;10.63;;;3.17;;
23498;SDS011;11926;48.120;11.562;2023-07-13T07:04:41;4.85;;;2.80;;
23498;SDS011;11926;48.120;11.562;2023-07-13T07:07:28;7.32;;;2.67;;
23498;SDS011;11926;48.120;11.562;2023-07-13T07:10:16;7.15;;;3.00;;
23498;SDS011;11926;48.120;11.562;2023-07-13T07:13:03;5.68;;;2.78;;
23498;SDS011;11926;48.120;11.562;2023-07-13T07:15:52;9.02;;;4.03;;
23498;SDS011;11926;48.120;11.562;2023-07-13T07:18:39;5.95;;;2.88;;
23498;SDS011;11926;48.120;11.562;2023-07-13T07:21:26;6.80;;;2.60;;
23498;SDS011;11926;48.120;11.562;2023-07-13T07:24:14;12.15;;;3.78;;
23498;SDS011;11926;48.120;11.562;2023-07-13T07:27:01;13.63;;;4.93;;
23498;SDS011;11926;48.120;11.562;2023-07-13T07:29:52;10.70;;;2.92;;
23498;SDS011;11926;48.120;11.562;2023-07-13T07:33:00;8.40;;;2.88;;
23498;SDS011;11926;48.120;11.562;2023-07-13T07:35:50;4.55;;;2.83;;
23498;SDS011;11926;48.120;11.562;2023-07-13T07:38:41;4.90;;;2.55;;
23498;SDS011;11926;48.120;11.562;2023-07-13T07:41:28;4.55;;;2.42;;
23498;SDS011;11926;48.120;11.562;2023-07-13T07:44:18;7.88;;;2.60;;
23498;SDS011;11926;48.120;11.562;2023-07-13T07:47:05;8.20;;;3.08;;
23498;SDS011;11926;48.120;11.562;2023-07-13T07:49:54;5.97;;;2.53;;
23498;SDS011;11926;48.120;11.562;2023-07-13T07:52:42;6.18;;;2.75;;
23498;SDS011;11926;48.120;11.562;2023-07-13T07:55:29;6.38;;;2.50;;
23498;SDS011;11926;48.120;11.562;2023-07-13T07:58:23;5.82;;;2.97;;
23498;SDS011;11926;48.120;11.562;2023-07-13T08:01:13;8.30;;;2.50;;
23498;SDS011;11926;48.120;11.562;2023-07-13T08:04:04;8.18;;;2.42;;
23498;SDS011;11926;48.120;11.562;2023-07-13T08:07:13;9.98;;;2.80;;
23498;SDS011;11926;48.120;11.562;2023-07-13T08:10:00;6.40;;;2.83;;
23498;SDS011;11926;48.120;11.562;2023-07-13T08:12:47;8.05;;;2.90;;
23498;SDS011;11926;48.120;11.562;2023-07-13T08:15:38;6.72;;;2.53;;
23498;SDS011;11926;48.120;11.562;2023-07-13T08:18:25;11.93;;;2.95;;
23498;SDS011;11926;48.120;11.562;2023-07-13T08:21:13;5.68;;;2.83;;
23498;SDS011;11926;48.120;11.562;2023-07-13T08:24:02;7.63;;;2.90;;
23498;SDS011;11926;48.120;11.562;2023-07-13T08:26:50;6.78;;;2.60;;
23498;SDS011;11926;48.120;11.562;2023-07-13T08:29:37;8.77;;;3.20;;
23498;SDS011;11926;48.120;11.562;2023-07-13T08:32:25;8.57;;;3.05;;
23498;SDS011;11926;48.120;11.562;2023-07-13T08:35:13;6.20;;;2.60;;
23498;SDS011;11926;48.120;11.562;2023-07-13T08:38:01;5.70;;;2.55;;
23498;SDS011;11926;48.120;11.562;2023-07-13T08:40:51;6.80;;;2.47;;
23498;SDS011;11926;48.120;11.562;2023-07-13T08:43:42;9.32;;;2.15;;
23498;SDS011;11926;48.120;11.562;2023-07-13T08:46:35;6.00;;;2.58;;
23498;SDS011;11926;48.120;11.562;2023-07-13T08:49:25;6.95;;;2.50;;
23498;SDS011;11926;48.120;11.562;2023-07-13T08:52:14;7.95;;;2.17;;
23498;SDS011;11926;48.120;11.562;2023-07-13T08:55:12;3.78;;;2.20;;
23498;SDS011;11926;48.120;11.562;2023-07-13T08:58:05;6.45;;;1.77;;
23498;SDS011;11926;48.120;11.562;2023-07-13T09:01:00;3.30;;;2.05;;
23498;SDS011;11926;48.120;11.562;2023-07-13T09:03:59;3.42;;;1.85;;
23498;SDS011;11926;48.120;11.562;2023-07-13T09:07:00;8.55;;;2.05;;
23498;SDS011;11926;48.120;11.562;2023-07-13T09:09:59;5.38;;;1.88;;
23498;SDS011;11926;48.120;11.562;2023-07-13T09:13:00;7.28;;;2.00;;
23498;SDS011;11926;48.120;11.562;2023-07-13T09:16:01;5.97;;;2.03;;
23498;SDS011;11926;48.120;11.562;2023-07-13T09:18:51;4.50;;;2.25;;
23498;SDS011;11926;48.120;11.562;2023-07-13T09:21:42;6.88;;;2.28;;
23498;SDS011;11926;48.120;11.562;2023-07-13T09:24:35;6.43;;;2.00;;
23498;SDS011;11926;48.120;11.562;2023-07-13T09:27:26;5.18;;;1.95;;
23498;SDS011;11926;48.120;11.562;2023-07-13T09:30:23;6.60;;;1.95;;
23498;SDS011;11926;48.120;11.562;2023-07-13T09:33:16;6.47;;;1.90;;
23498;SDS011;11926;48.120;11.562;2023-07-13T09:36:08;7.32;;;2.30;;
23498;SDS011;11926;48.120;11.562;2023-07-13T09:39:10;4.33;;;1.50;;
23498;SDS011;11926;48.120;11.562;2023-07-13T09:42:03;3.92;;;1.77;;
23498;SDS011;11926;48.120;11.562;2023-07-13T09:45:01;3.72;;;1.35;;
23498;SDS011;11926;48.120;11.562;2023-07-13T09:47:53;4.00;;;1.52;;
23498;SDS011;11926;48.120;11.562;2023-07-13T09:50:52;4.47;;;1.80;;
23498;SDS011;11926;48.120;11.562;2023-07-13T09:53:42;4.97;;;1.80;;
23498;SDS011;11926;48.120;11.562;2023-07-13T09:56:30;4.68;;;1.80;;
23498;SDS011;11926;48.120;11.562;2023-07-13T09:59:19;6.45;;;1.88;;
23498;SDS011;11926;48.120;11.562;2023-07-13T10:02:22;6.07;;;1.70;;
23498;SDS011;11926;48.120;11.562;2023-07-13T10:05:13;7.72;;;1.58;;
23498;SDS011;11926;48.120;11.562;2023-07-13T10:08:03;10.18;;;1.77;;
23498;SDS011;11926;48.120;11.562;2023-07-13T10:10:53;4.50;;;1.90;;
23498;SDS011;11926;48.120;11.562;2023-07-13T10:13:46;5.43;;;1.60;;
23498;SDS011;11926;48.120;11.562;2023-07-13T10:16:38;6.63;;;1.60;;
23498;SDS011;11926;48.120;11.562;2023-07-13T10:19:29;8.85;;;1.48;;
23498;SDS011;11926;48.120;11.562;2023-07-13T10:22:24;8.95;;;1.58;;
23498;SDS011;11926;48.120;11.562;2023-07-13T10:25:16;4.07;;;1.20;;
23498;SDS011;11926;48.120;11.562;2023-07-13T10:28:06;5.32;;;1.45;;
23498;SDS011;11926;48.120;11.562;2023-07-13T10:31:14;6.38;;;1.38;;
23498;SDS011;11926;48.120;11.562;2023-07-13T10:34:03;4.15;;;1.50;;
23498;SDS011;11926;48.120;11.562;2023-07-13T10:36:52;4.43;;;1.20;;
23498;SDS011;11926;48.120;11.562;2023-07-13T10:39:40;5.15;;;1.40;;
23498;SDS011;11926;48.120;11.562;2023-07-13T10:42:29;7.38;;;1.45;;
23498;SDS011;11926;48.120;11.562;2023-07-13T10:45:21;5.88;;;1.55;;
23498;SDS011;11926;48.120;11.562;2023-07-13T10:48:11;4.28;;;1.50;;
23498;SDS011;11926;48.120;11.562;2023-07-13T10:51:01;9.68;;;1.48;;
23498;SDS011;11926;48.120;11.562;2023-07-13T11:00:15;4.05;;;1.33;;
23498;SDS011;11926;48.120;11.562;2023-07-13T11:03:04;8.73;;;1.55;;
23498;SDS011;11926;48.120;11.562;2023-07-13T11:06:05;3.95;;;1.40;;
23498;SDS011;11926;48.120;11.562;2023-07-13T11:08:56;3.65;;;1.77;;
23498;SDS011;11926;48.120;11.562;2023-07-13T11:11:46;3.50;;;1.40;;
23498;SDS011;11926;48.120;11.562;2023-07-13T11:14:34;6.15;;;1.70;;
23498;SDS011;11926;48.120;11.562;2023-07-13T11:17:32;3.38;;;1.98;;
23498;SDS011;11926;48.120;11.562;2023-07-13T11:20:24;4.30;;;1.75;;
23498;SDS011;11926;48.120;11.562;2023-07-13T11:23:27;4.38;;;1.50;;
23498;SDS011;11926;48.120;11.562;2023-07-13T11:32:23;3.67;;;1.55;;
23498;SDS011;11926;48.120;11.562;2023-07-13T11:35:19;6.63;;;1.80;;
23498;SDS011;11926;48.120;11.562;2023-07-13T11:38:13;4.50;;;1.30;;
23498;SDS011;11926;48.120;11.562;2023-07-13T11:41:05;6.55;;;1.27;;
23498;SDS011;11926;48.120;11.562;2023-07-13T11:44:06;6.78;;;1.20;;
23498;SDS011;11926;48.120;11.562;2023-07-13T11:46:58;3.33;;;1.30;;
23498;SDS011;11926;48.120;11.562;2023-07-13T11:49:52;3.40;;;1.00;;
23498;SDS011;11926;48.120;11.562;2023-07-13T11:52:42;3.60;;;1.23;;
23498;SDS011;11926;48.120;11.562;2023-07-13T11:55:31;4.88;;;1.33;;
23498;SDS011;11926;48.120;11.562;2023-07-13T11:58:19;4.00;;;1.35;;
23498;SDS011;11926;48.120;11.562;2023-07-13T12:01:15;6.15;;;1.88;;
23498;SDS011;11926;48.120;11.562;2023-07-13T12:04:08;3.58;;;1.60;;
23498;SDS011;11926;48.120;11.562;2023-07-13T12:07:16;6.28;;;1.52;;
23498;SDS011;11926;48.120;11.562;2023-07-13T12:10:13;3.38;;;1.35;;
23498;SDS011;11926;48.120;11.562;2023-07-13T12:13:08;5.97;;;1.58;;
23498;SDS011;11926;48.120;11.562;2023-07-13T12:15:58;7.50;;;1.45;;
23498;SDS011;11926;48.120;11.562;2023-07-13T12:18:45;8.25;;;1.63;;
23498;SDS011;11926;48.120;11.562;2023-07-13T12:21:37;3.03;;;1.63;;
23498;SDS011;11926;48.120;11.562;2023-07-13T12:24:27;7.93;;;1.83;;
23498;SDS011;11926;48.120;11.562;2023-07-13T12:27:18;2.22;;;1.20;;
23498;SDS011;11926;48.120;11.562;2023-07-13T12:30:20;5.32;;;1.65;;
23498;SDS011;11926;48.120;11.562;2023-07-13T12:33:12;6.20;;;1.80;;
23498;SDS011;11926;48.120;11.562;2023-07-13T12:36:00;2.63;;;1.20;;
23498;SDS011;11926;48.120;11.562;2023-07-13T12:38:49;5.57;;;1.60;;
23498;SDS011;11926;48.120;11.562;2023-07-13T12:41:39;4.15;;;1.63;;
23498;SDS011;11926;48.120;11.562;2023-07-13T12:44:27;5.15;;;1.65;;
23498;SDS011;11926;48.120;11.562;2023-07-13T12:47:16;5.70;;;1.60;;
23498;SDS011;11926;48.120;11.562;2023-07-13T12:50:03;3.20;;;1.58;;
23498;SDS011;11926;48.120;11.562;2023-07-13T12:52:59;4.28;;;1.52;;
23498;SDS011;11926;48.120;11.562;2023-07-13T12:55:52;5.75;;;1.38;;
23498;SDS011;11926;48.120;11.562;2023-07-13T12:58:46;5.47;;;1.70;;
23498;SDS011;11926;48.120;11.562;2023-07-13T13:01:39;3.47;;;1.50;;
23498;SDS011;11926;48.120;11.562;2023-07-13T13:04:29;3.63;;;1.48;;
23498;SDS011;11926;48.120;11.562;2023-07-13T13:07:17;5.40;;;1.33;;
23498;SDS011;11926;48.120;11.562;2023-07-13T13:10:10;3.28;;;1.30;;
23498;SDS011;11926;48.120;11.562;2023-07-13T13:12:59;9.40;;;1.50;;
23498;SDS011;11926;48.120;11.562;2023-07-13T13:15:47;4.68;;;1.27;;
23498;SDS011;11926;48.120;11.562;2023-07-13T13:18:34;4.38;;;1.65;;
23498;SDS011;11926;48.120;11.562;2023-07-13T13:21:22;7.70;;;1.48;;
23498;SDS011;11926;48.120;11.562;2023-07-13T13:24:11;4.07;;;1.42;;
23498;SDS011;11926;48.120;11.562;2023-07-13T13:26:59;3.17;;;1.55;;
23498;SDS011;11926;48.120;11.562;2023-07-13T13:29:48;4.53;;;1.27;;
23498;SDS011;11926;48.120;11.562;2023-07-13T13:32:39;5.93;;;1.40;;
23498;SDS011;11926;48.120;11.562;2023-07-13T13:35:26;3.22;;;1.60;;
23498;SDS011;11926;48.120;11.562;2023-07-13T13:38:15;4.90;;;1.17;;
23498;SDS011;11926;48.120;11.562;2023-07-13T13:41:03;3.20;;;1.40;;
23498;SDS011;11926;48.120;11.562;2023-07-13T13:43:51;4.70;;;1.20;;
23498;SDS011;11926;48.120;11.562;2023-07-13T13:46:38;2.33;;;1.10;;
23498;SDS011;11926;48.120;11.562;2023-07-13T13:49:27;2.80;;;1.30;;
23498;SDS011;11926;48.120;11.562;2023-07-13T13:52:16;5.20;;;1.30;;
23498;SDS011;11926;48.120;11.562;2023-07-13T13:55:05;3.72;;;1.60;;
23498;SDS011;11926;48.120;11.562;2023-07-13T13:57:59;4.97;;;1.27;;
23498;SDS011;11926;48.120;11.562;2023-07-13T14:00:47;4.60;;;1.52;;
23498;SDS011;11926;48.120;11.562;2023-07-13T14:03:35;4.50;;;1.52;;
23498;SDS011;11926;48.120;11.562;2023-07-13T14:06:24;4.30;;;1.40;;
23498;SDS011;11926;48.120;11.562;2023-07-13T14:09:13;4.50;;;1.48;;
23498;SDS011;11926;48.120;11.562;2023-07-13T14:12:03;6.50;;;1.55;;
23498;SDS011;11926;48.120;11.562;2023-07-13T14:14:53;4.82;;;1.35;;
23498;SDS011;11926;48.120;11.562;2023-07-13T14:17:40;5.13;;;1.40;;
23498;SDS011;11926;48.120;11.562;2023-07-13T14:20:29;4.20;;;1.05;;
23498;SDS011;11926;48.120;11.562;2023-07-13T14:23:17;5.50;;;1.60;;
23498;SDS011;11926;48.120;11.562;2023-07-13T14:26:08;6.43;;;1.55;;
23498;SDS011;11926;48.120;11.562;2023-07-13T14:28:59;2.22;;;1.10;;
23498;SDS011;11926;48.120;11.562;2023-07-13T14:31:47;3.63;;;1.20;;
23498;SDS011;11926;48.120;11.562;2023-07-13T14:34:34;3.53;;;1.60;;
23498;SDS011;11926;48.120;11.562;2023-07-13T14:37:24;3.53;;;1.48;;
23498;SDS011;11926;48.120;11.562;2023-07-13T14:40:14;5.55;;;1.40;;
23498;SDS011;11926;48.120;11.562;2023-07-13T14:43:03;2.58;;;1.20;;
23498;SDS011;11926;48.120;11.562;2023-07-13T14:45:50;5.60;;;1.48;;
23498;SDS011;11926;48.120;11.562;2023-07-13T14:48:37;5.38;;;1.45;;
23498;SDS011;11926;48.120;11.562;2023-07-13T14:51:24;3.75;;;1.35;;
23498;SDS011;11926;48.120;11.562;2023-07-13T14:54:12;4.13;;;1.52;;
23498;SDS011;11926;48.120;11.562;2023-07-13T14:57:01;3.92;;;1.70;;
23498;SDS011;11926;48.120;11.562;2023-07-13T14:59:50;2.50;;;1.25;;
23498;SDS011;11926;48.120;11.562;2023-07-13T15:02:37;4.03;;;1.50;;
23498;SDS011;11926;48.120;11.562;2023-07-13T15:05:26;3.63;;;1.50;;
23498;SDS011;11926;48.120;11.562;2023-07-13T15:08:15;3.40;;;1.20;;
23498;SDS011;11926;48.120;11.562;2023-07-13T15:11:03;4.22;;;1.20;;
23498;SDS011;11926;48.120;11.562;2023-07-13T15:13:52;3.45;;;1.33;;
23498;SDS011;11926;48.120;11.562;2023-07-13T15:16:39;3.08;;;1.23;;
23498;SDS011;11926;48.120;11.562;2023-07-13T15:19:27;3.10;;;1.35;;
23498;SDS011;11926;48.120;11.562;2023-07-13T15:22:14;4.88;;;1.30;;
23498;SDS011;11926;48.120;11.562;2023-07-13T15:25:02;8.38;;;1.65;;
23498;SDS011;11926;48.120;11.562;2023-07-13T15:27:52;3.20;;;1.30;;
23498;SDS011;11926;48.120;11.562;2023-07-13T15:30:47;5.60;;;1.20;;
23498;SDS011;11926;48.120;11.562;2023-07-13T15:33:35;3.60;;;1.40;;
23498;SDS011;11926;48.120;11.562;2023-07-13T15:36:23;3.17;;;1.30;;
23498;SDS011;11926;48.120;11.562;2023-07-13T15:39:13;4.93;;;1.45;;
23498;SDS011;11926;48.120;11.562;2023-07-13T15:42:02;4.60;;;1.30;;
23498;SDS011;11926;48.120;11.562;2023-07-13T15:44:50;3.05;;;1.17;;
23498;SDS011;11926;48.120;11.562;2023-07-13T15:47:38;3.40;;;1.30;;
23498;SDS011;11926;48.120;11.562;2023-07-13T15:50:25;3.53;;;1.50;;
23498;SDS011;11926;48.120;11.562;2023-07-13T15:53:18;6.63;;;1.30;;
23498;SDS011;11926;48.120;11.562;2023-07-13T15:56:16;6.07;;;1.38;;
23498;SDS011;11926;48.120;11.562;2023-07-13T15:59:07;3.08;;;1.35;;
23498;SDS011;11926;48.120;11.562;2023-07-13T16:01:57;5.50;;;1.40;;
23498;SDS011;11926;48.120;11.562;2023-07-13T16:04:48;3.95;;;1.50;;
23498;SDS011;11926;48.120;11.562;2023-07-13T16:07:35;3.75;;;1.50;;
23498;SDS011;11926;48.120;11.562;2023-07-13T16:10:23;4.10;;;1.42;;
23498;SDS011;11926;48.120;11.562;2023-07-13T16:13:18;5.65;;;1.40;;
23498;SDS011;11926;48.120;11.562;2023-07-13T16:16:08;3.42;;;1.35;;
23498;SDS011;11926;48.120;11.562;2023-07-13T16:18:58;3.05;;;1.30;;
23498;SDS011;11926;48.120;11.562;2023-07-13T16:21:48;3.85;;;1.70;;
23498;SDS011;11926;48.120;11.562;2023-07-13T16:24:37;5.53;;;1.70;;
23498;SDS011;11926;48.120;11.562;2023-07-13T16:27:25;3.15;;;1.58;;
23498;SDS011;11926;48.120;11.562;2023-07-13T16:30:14;3.35;;;1.58;;
23498;SDS011;11926;48.120;11.562;2023-07-13T16:33:06;4.28;;;1.50;;
23498;SDS011;11926;48.120;11.562;2023-07-13T16:35:54;4.50;;;1.60;;
23498;SDS011;11926;48.120;11.562;2023-07-13T16:38:43;3.25;;;1.52;;
23498;SDS011;11926;48.120;11.562;2023-07-13T16:41:30;7.88;;;1.63;;
23498;SDS011;11926;48.120;11.562;2023-07-13T16:44:18;2.15;;;1.30;;
23498;SDS011;11926;48.120;11.562;2023-07-13T16:47:08;4.65;;;1.52;;
23498;SDS011;11926;48.120;11.562;2023-07-13T16:49:59;5.20;;;1.45;;
23498;SDS011;11926;48.120;11.562;2023-07-13T16:52:49;4.95;;;1.77;;
23498;SDS011;11926;48.120;11.562;2023-07-13T16:55:39;5.75;;;1.27;;
23498;SDS011;11926;48.120;11.562;2023-07-13T16:58:27;3.60;;;1.20;;
23498;SDS011;11926;48.120;11.562;2023-07-13T17:01:17;6.35;;;1.63;;